sensor_id;sensor_type;location;lat;lon;timestamp;P1;durP1;ratioP1;P2;durP2;ratioP2
74851;SDS011;63400;50.650;6.832;2023-06-14T00:01:31;17.38;;;6.20;;
74851;SDS011;63400;50.650;6.832;2023-06-14T00:03:59;12.57;;;4.95;;
74851;SDS011;63400;50.650;6.832;2023-06-14T00:06:26;15.80;;;5.75;;
74851;SDS011;63400;50.650;6.832;2023-06-14T00:11:19;17.75;;;6.18;;
74851;SDS011;63400;50.650;6.832;2023-06-14T00:13:45;14.32;;;4.88;;
74851;SDS011;63400;50.650;6.832;2023-06-14T00:16:11;16.88;;;5.65;;
74851;SDS011;63400;50.650;6.832;2023-06-14T00:18:36;17.05;;;5.18;;
74851;SDS011;63400;50.650;6.832;2023-06-14T00:21:03;15.75;;;5.70;;
74851;SDS011;63400;50.650;6.832;2023-06-14T00:23:29;13.05;;;5.07;;
74851;SDS011;63400;50.650;6.832;2023-06-14T00:25:54;14.75;;;5.32;;
74851;SDS011;63400;50.650;6.832;2023-06-14T00:28:20;14.38;;;5.25;;
74851;SDS011;63400;50.650;6.832;2023-06-14T00:30:45;16.90;;;5.60;;
74851;SDS011;63400;50.650;6.832;2023-06-14T00:33:12;16.25;;;5.22;;
74851;SDS011;63400;50.650;6.832;2023-06-14T00:35:37;13.80;;;5.20;;
74851;SDS011;63400;50.650;6.832;2023-06-14T00:38:03;13.95;;;5.45;;
74851;SDS011;63400;50.650;6.832;2023-06-14T00:40:29;14.18;;;5.63;;
74851;SDS011;63400;50.650;6.832;2023-06-14T00:42:54;15.18;;;5.95;;
74851;SDS011;63400;50.650;6.832;2023-06-14T00:45:19;14.15;;;5.45;;
74851;SDS011;63400;50.650;6.832;2023-06-14T00:47:48;12.35;;;4.72;;
74851;SDS011;63400;50.650;6.832;2023-06-14T00:50:17;15.95;;;5.55;;
74851;SDS011;63400;50.650;6.832;2023-06-14T00:52:43;13.55;;;5.07;;
74851;SDS011;63400;50.650;6.832;2023-06-14T00:55:09;13.43;;;5.28;;
74851;SDS011;63400;50.650;6.832;2023-06-14T00:57:35;13.32;;;4.97;;
74851;SDS011;63400;50.650;6.832;2023-06-14T01:00:02;12.90;;;5.10;;
74851;SDS011;63400;50.650;6.832;2023-06-14T01:04:55;13.57;;;4.47;;
74851;SDS011;63400;50.650;6.832;2023-06-14T01:15:29;14.75;;;5.00;;
74851;SDS011;63400;50.650;6.832;2023-06-14T01:17:55;13.38;;;5.05;;
74851;SDS011;63400;50.650;6.832;2023-06-14T01:20:28;19.00;;;5.57;;
74851;SDS011;63400;50.650;6.832;2023-06-14T01:22:57;15.00;;;5.35;;
74851;SDS011;63400;50.650;6.832;2023-06-14T01:25:23;12.15;;;4.65;;
74851;SDS011;63400;50.650;6.832;2023-06-14T01:27:51;14.32;;;5.28;;
74851;SDS011;63400;50.650;6.832;2023-06-14T01:30:18;15.98;;;5.43;;
74851;SDS011;63400;50.650;6.832;2023-06-14T01:32:54;16.02;;;5.50;;
74851;SDS011;63400;50.650;6.832;2023-06-14T01:35:21;14.10;;;5.28;;
74851;SDS011;63400;50.650;6.832;2023-06-14T01:37:47;16.02;;;6.20;;
74851;SDS011;63400;50.650;6.832;2023-06-14T01:40:13;14.93;;;5.38;;
74851;SDS011;63400;50.650;6.832;2023-06-14T01:42:39;15.40;;;4.75;;
74851;SDS011;63400;50.650;6.832;2023-06-14T01:45:05;13.43;;;5.05;;
74851;SDS011;63400;50.650;6.832;2023-06-14T01:47:31;16.27;;;5.60;;
74851;SDS011;63400;50.650;6.832;2023-06-14T01:49:58;17.27;;;5.80;;
74851;SDS011;63400;50.650;6.832;2023-06-14T01:52:23;14.55;;;4.97;;
74851;SDS011;63400;50.650;6.832;2023-06-14T01:54:49;14.55;;;4.78;;
74851;SDS011;63400;50.650;6.832;2023-06-14T01:57:15;17.10;;;5.88;;
74851;SDS011;63400;50.650;6.832;2023-06-14T01:59:41;18.73;;;6.63;;
74851;SDS011;63400;50.650;6.832;2023-06-14T02:02:06;15.65;;;5.57;;
74851;SDS011;63400;50.650;6.832;2023-06-14T02:04:32;17.30;;;6.00;;
74851;SDS011;63400;50.650;6.832;2023-06-14T02:06:57;14.75;;;5.57;;
74851;SDS011;63400;50.650;6.832;2023-06-14T02:09:22;13.43;;;6.13;;
74851;SDS011;63400;50.650;6.832;2023-06-14T02:11:48;15.40;;;5.68;;
74851;SDS011;63400;50.650;6.832;2023-06-14T02:14:14;14.30;;;5.20;;
74851;SDS011;63400;50.650;6.832;2023-06-14T02:16:39;15.07;;;5.35;;
74851;SDS011;63400;50.650;6.832;2023-06-14T02:19:05;17.77;;;5.65;;
74851;SDS011;63400;50.650;6.832;2023-06-14T02:21:30;15.02;;;5.20;;
74851;SDS011;63400;50.650;6.832;2023-06-14T02:23:56;14.25;;;5.13;;
74851;SDS011;63400;50.650;6.832;2023-06-14T02:26:23;16.48;;;5.32;;
74851;SDS011;63400;50.650;6.832;2023-06-14T02:28:49;14.00;;;4.95;;
74851;SDS011;63400;50.650;6.832;2023-06-14T02:31:14;15.15;;;5.68;;
74851;SDS011;63400;50.650;6.832;2023-06-14T02:33:41;13.52;;;5.38;;
74851;SDS011;63400;50.650;6.832;2023-06-14T02:36:06;14.68;;;5.38;;
74851;SDS011;63400;50.650;6.832;2023-06-14T02:38:32;15.10;;;5.45;;
74851;SDS011;63400;50.650;6.832;2023-06-14T02:40:58;13.32;;;5.32;;
74851;SDS011;63400;50.650;6.832;2023-06-14T02:43:25;13.40;;;4.72;;
74851;SDS011;63400;50.650;6.832;2023-06-14T02:45:50;15.38;;;5.05;;
74851;SDS011;63400;50.650;6.832;2023-06-14T02:48:16;11.98;;;4.38;;
74851;SDS011;63400;50.650;6.832;2023-06-14T02:50:41;13.40;;;5.57;;
74851;SDS011;63400;50.650;6.832;2023-06-14T02:53:07;14.82;;;6.00;;
74851;SDS011;63400;50.650;6.832;2023-06-14T02:55:33;13.55;;;5.03;;
74851;SDS011;63400;50.650;6.832;2023-06-14T02:57:58;15.20;;;5.70;;
74851;SDS011;63400;50.650;6.832;2023-06-14T03:00:24;17.45;;;5.68;;
74851;SDS011;63400;50.650;6.832;2023-06-14T03:02:49;14.32;;;5.15;;
74851;SDS011;63400;50.650;6.832;2023-06-14T03:05:16;17.60;;;5.75;;
74851;SDS011;63400;50.650;6.832;2023-06-14T03:07:46;15.27;;;5.72;;
74851;SDS011;63400;50.650;6.832;2023-06-14T03:10:12;13.43;;;4.93;;
74851;SDS011;63400;50.650;6.832;2023-06-14T03:12:38;16.50;;;6.30;;
74851;SDS011;63400;50.650;6.832;2023-06-14T03:15:04;15.02;;;5.10;;
74851;SDS011;63400;50.650;6.832;2023-06-14T03:17:30;16.70;;;6.13;;
74851;SDS011;63400;50.650;6.832;2023-06-14T03:19:58;13.65;;;5.28;;
74851;SDS011;63400;50.650;6.832;2023-06-14T03:22:25;14.82;;;5.10;;
74851;SDS011;63400;50.650;6.832;2023-06-14T03:24:51;14.55;;;5.40;;
74851;SDS011;63400;50.650;6.832;2023-06-14T03:27:17;16.27;;;5.43;;
74851;SDS011;63400;50.650;6.832;2023-06-14T03:29:43;14.02;;;4.68;;
74851;SDS011;63400;50.650;6.832;2023-06-14T03:32:09;16.17;;;5.93;;
74851;SDS011;63400;50.650;6.832;2023-06-14T03:34:34;14.90;;;5.32;;
74851;SDS011;63400;50.650;6.832;2023-06-14T03:37:00;13.25;;;4.85;;
74851;SDS011;63400;50.650;6.832;2023-06-14T03:39:26;15.23;;;4.55;;
74851;SDS011;63400;50.650;6.832;2023-06-14T03:41:51;14.98;;;6.05;;
74851;SDS011;63400;50.650;6.832;2023-06-14T03:44:17;13.48;;;4.82;;
74851;SDS011;63400;50.650;6.832;2023-06-14T03:46:44;17.42;;;5.75;;
74851;SDS011;63400;50.650;6.832;2023-06-14T03:49:10;15.65;;;5.10;;
74851;SDS011;63400;50.650;6.832;2023-06-14T03:51:36;17.38;;;6.20;;
74851;SDS011;63400;50.650;6.832;2023-06-14T03:54:02;23.63;;;6.50;;
74851;SDS011;63400;50.650;6.832;2023-06-14T03:56:27;15.30;;;5.18;;
74851;SDS011;63400;50.650;6.832;2023-06-14T03:58:53;15.13;;;6.05;;
74851;SDS011;63400;50.650;6.832;2023-06-14T04:01:18;15.48;;;5.22;;
74851;SDS011;63400;50.650;6.832;2023-06-14T04:03:43;14.43;;;5.07;;
74851;SDS011;63400;50.650;6.832;2023-06-14T04:06:09;14.55;;;4.90;;
74851;SDS011;63400;50.650;6.832;2023-06-14T04:08:34;17.60;;;5.55;;
74851;SDS011;63400;50.650;6.832;2023-06-14T04:11:00;14.63;;;5.40;;
74851;SDS011;63400;50.650;6.832;2023-06-14T04:13:26;15.52;;;5.68;;
74851;SDS011;63400;50.650;6.832;2023-06-14T04:15:52;15.45;;;5.28;;
74851;SDS011;63400;50.650;6.832;2023-06-14T04:18:17;15.95;;;5.15;;
74851;SDS011;63400;50.650;6.832;2023-06-14T04:20:44;17.92;;;5.60;;
74851;SDS011;63400;50.650;6.832;2023-06-14T04:23:13;16.23;;;5.90;;
74851;SDS011;63400;50.650;6.832;2023-06-14T04:25:40;15.90;;;5.60;;
74851;SDS011;63400;50.650;6.832;2023-06-14T04:28:05;13.93;;;5.28;;
74851;SDS011;63400;50.650;6.832;2023-06-14T04:30:34;12.55;;;4.90;;
74851;SDS011;63400;50.650;6.832;2023-06-14T04:33:01;12.07;;;4.82;;
74851;SDS011;63400;50.650;6.832;2023-06-14T04:35:30;13.82;;;5.07;;
74851;SDS011;63400;50.650;6.832;2023-06-14T04:37:57;13.70;;;4.95;;
74851;SDS011;63400;50.650;6.832;2023-06-14T04:40:23;13.23;;;5.13;;
74851;SDS011;63400;50.650;6.832;2023-06-14T04:42:49;14.23;;;5.78;;
74851;SDS011;63400;50.650;6.832;2023-06-14T04:45:15;10.77;;;4.05;;
74851;SDS011;63400;50.650;6.832;2023-06-14T04:47:41;16.80;;;5.50;;
74851;SDS011;63400;50.650;6.832;2023-06-14T04:50:08;39.13;;;7.70;;
74851;SDS011;63400;50.650;6.832;2023-06-14T04:52:35;18.27;;;5.93;;
74851;SDS011;63400;50.650;6.832;2023-06-14T04:55:02;16.67;;;6.65;;
74851;SDS011;63400;50.650;6.832;2023-06-14T04:57:28;13.45;;;6.00;;
74851;SDS011;63400;50.650;6.832;2023-06-14T04:59:54;22.20;;;6.78;;
74851;SDS011;63400;50.650;6.832;2023-06-14T05:02:23;17.20;;;6.78;;
74851;SDS011;63400;50.650;6.832;2023-06-14T05:04:50;17.55;;;7.10;;
74851;SDS011;63400;50.650;6.832;2023-06-14T05:07:15;13.70;;;6.90;;
74851;SDS011;63400;50.650;6.832;2023-06-14T05:09:41;16.63;;;6.85;;
74851;SDS011;63400;50.650;6.832;2023-06-14T05:12:06;16.63;;;7.45;;
74851;SDS011;63400;50.650;6.832;2023-06-14T05:14:35;17.30;;;8.38;;
74851;SDS011;63400;50.650;6.832;2023-06-14T05:17:01;21.13;;;7.60;;
74851;SDS011;63400;50.650;6.832;2023-06-14T05:19:27;18.70;;;7.95;;
74851;SDS011;63400;50.650;6.832;2023-06-14T05:21:53;16.30;;;7.80;;
74851;SDS011;63400;50.650;6.832;2023-06-14T05:24:18;11.52;;;6.97;;
74851;SDS011;63400;50.650;6.832;2023-06-14T05:26:44;12.30;;;7.22;;
74851;SDS011;63400;50.650;6.832;2023-06-14T05:29:10;12.60;;;6.50;;
74851;SDS011;63400;50.650;6.832;2023-06-14T05:31:35;12.30;;;6.43;;
74851;SDS011;63400;50.650;6.832;2023-06-14T05:34:01;11.73;;;6.22;;
74851;SDS011;63400;50.650;6.832;2023-06-14T05:36:26;10.20;;;5.95;;
74851;SDS011;63400;50.650;6.832;2023-06-14T05:38:53;8.88;;;6.00;;
74851;SDS011;63400;50.650;6.832;2023-06-14T05:41:28;11.82;;;5.68;;
74851;SDS011;63400;50.650;6.832;2023-06-14T05:43:54;9.95;;;5.72;;
74851;SDS011;63400;50.650;6.832;2023-06-14T05:46:20;10.77;;;5.93;;
74851;SDS011;63400;50.650;6.832;2023-06-14T05:48:49;9.65;;;5.10;;
74851;SDS011;63400;50.650;6.832;2023-06-14T05:51:15;8.55;;;5.20;;
74851;SDS011;63400;50.650;6.832;2023-06-14T05:53:44;8.15;;;4.85;;
74851;SDS011;63400;50.650;6.832;2023-06-14T05:56:13;11.73;;;5.13;;
74851;SDS011;63400;50.650;6.832;2023-06-14T05:58:42;8.70;;;5.68;;
74851;SDS011;63400;50.650;6.832;2023-06-14T06:01:08;9.10;;;4.47;;
74851;SDS011;63400;50.650;6.832;2023-06-14T06:03:34;8.88;;;4.63;;
74851;SDS011;63400;50.650;6.832;2023-06-14T06:05:59;9.15;;;3.97;;
74851;SDS011;63400;50.650;6.832;2023-06-14T06:08:26;8.68;;;4.47;;
74851;SDS011;63400;50.650;6.832;2023-06-14T06:10:52;7.85;;;3.83;;
74851;SDS011;63400;50.650;6.832;2023-06-14T06:13:17;7.38;;;4.00;;
74851;SDS011;63400;50.650;6.832;2023-06-14T06:15:43;67.90;;;9.85;;
74851;SDS011;63400;50.650;6.832;2023-06-14T06:18:08;6.07;;;3.75;;
74851;SDS011;63400;50.650;6.832;2023-06-14T06:20:34;5.15;;;3.80;;
74851;SDS011;63400;50.650;6.832;2023-06-14T06:23:00;6.47;;;3.83;;
74851;SDS011;63400;50.650;6.832;2023-06-14T06:25:26;7.20;;;3.83;;
74851;SDS011;63400;50.650;6.832;2023-06-14T06:27:52;7.18;;;3.55;;
74851;SDS011;63400;50.650;6.832;2023-06-14T06:30:19;5.32;;;3.03;;
74851;SDS011;63400;50.650;6.832;2023-06-14T06:32:44;4.95;;;2.85;;
74851;SDS011;63400;50.650;6.832;2023-06-14T06:35:10;6.35;;;3.25;;
74851;SDS011;63400;50.650;6.832;2023-06-14T06:37:37;8.05;;;3.33;;
74851;SDS011;63400;50.650;6.832;2023-06-14T06:40:03;6.10;;;3.55;;
74851;SDS011;63400;50.650;6.832;2023-06-14T06:42:32;14.00;;;4.25;;
74851;SDS011;63400;50.650;6.832;2023-06-14T06:45:03;5.95;;;3.83;;
74851;SDS011;63400;50.650;6.832;2023-06-14T06:47:28;130.57;;;11.30;;
74851;SDS011;63400;50.650;6.832;2023-06-14T06:49:55;7.80;;;3.38;;
74851;SDS011;63400;50.650;6.832;2023-06-14T06:52:22;9.35;;;2.80;;
74851;SDS011;63400;50.650;6.832;2023-06-14T06:54:47;40.05;;;5.07;;
74851;SDS011;63400;50.650;6.832;2023-06-14T06:57:14;7.90;;;2.88;;
74851;SDS011;63400;50.650;6.832;2023-06-14T06:59:39;7.57;;;3.80;;
74851;SDS011;63400;50.650;6.832;2023-06-14T07:02:05;6.10;;;2.85;;
74851;SDS011;63400;50.650;6.832;2023-06-14T07:04:32;5.90;;;3.00;;
74851;SDS011;63400;50.650;6.832;2023-06-14T07:06:57;10.02;;;2.78;;
74851;SDS011;63400;50.650;6.832;2023-06-14T07:09:23;3.80;;;1.95;;
74851;SDS011;63400;50.650;6.832;2023-06-14T07:11:49;5.22;;;2.38;;
74851;SDS011;63400;50.650;6.832;2023-06-14T07:14:15;4.93;;;2.40;;
74851;SDS011;63400;50.650;6.832;2023-06-14T07:16:41;3.90;;;1.98;;
74851;SDS011;63400;50.650;6.832;2023-06-14T07:21:34;4.80;;;2.13;;
74851;SDS011;63400;50.650;6.832;2023-06-14T07:23:59;6.00;;;2.42;;
74851;SDS011;63400;50.650;6.832;2023-06-14T07:26:25;6.68;;;2.25;;
74851;SDS011;63400;50.650;6.832;2023-06-14T07:28:51;8.60;;;2.13;;
74851;SDS011;63400;50.650;6.832;2023-06-14T07:31:17;4.22;;;2.00;;
74851;SDS011;63400;50.650;6.832;2023-06-14T07:33:44;4.20;;;2.10;;
74851;SDS011;63400;50.650;6.832;2023-06-14T07:36:10;4.50;;;2.20;;
74851;SDS011;63400;50.650;6.832;2023-06-14T07:38:35;4.63;;;1.98;;
74851;SDS011;63400;50.650;6.832;2023-06-14T07:41:01;6.28;;;2.47;;
74851;SDS011;63400;50.650;6.832;2023-06-14T07:43:27;6.03;;;2.30;;
74851;SDS011;63400;50.650;6.832;2023-06-14T07:45:52;5.22;;;2.22;;
74851;SDS011;63400;50.650;6.832;2023-06-14T07:48:18;4.30;;;1.95;;
74851;SDS011;63400;50.650;6.832;2023-06-14T07:50:43;7.50;;;2.30;;
74851;SDS011;63400;50.650;6.832;2023-06-14T07:53:09;6.10;;;1.83;;
74851;SDS011;63400;50.650;6.832;2023-06-14T07:55:35;4.32;;;2.03;;
74851;SDS011;63400;50.650;6.832;2023-06-14T07:58:02;3.88;;;1.52;;
74851;SDS011;63400;50.650;6.832;2023-06-14T08:00:28;4.43;;;1.98;;
74851;SDS011;63400;50.650;6.832;2023-06-14T08:02:53;3.60;;;1.92;;
74851;SDS011;63400;50.650;6.832;2023-06-14T08:05:23;6.28;;;2.00;;
74851;SDS011;63400;50.650;6.832;2023-06-14T08:07:49;4.00;;;1.80;;
74851;SDS011;63400;50.650;6.832;2023-06-14T08:10:14;6.05;;;2.10;;
74851;SDS011;63400;50.650;6.832;2023-06-14T08:12:40;3.75;;;1.73;;
74851;SDS011;63400;50.650;6.832;2023-06-14T08:15:05;3.95;;;1.92;;
74851;SDS011;63400;50.650;6.832;2023-06-14T08:17:31;2.88;;;2.03;;
74851;SDS011;63400;50.650;6.832;2023-06-14T08:19:56;4.80;;;1.55;;
74851;SDS011;63400;50.650;6.832;2023-06-14T08:22:22;4.38;;;2.13;;
74851;SDS011;63400;50.650;6.832;2023-06-14T08:24:49;3.70;;;1.73;;
74851;SDS011;63400;50.650;6.832;2023-06-14T08:27:15;3.97;;;1.55;;
74851;SDS011;63400;50.650;6.832;2023-06-14T08:29:40;4.90;;;1.75;;
74851;SDS011;63400;50.650;6.832;2023-06-14T08:32:06;3.47;;;1.45;;
74851;SDS011;63400;50.650;6.832;2023-06-14T08:34:32;4.57;;;1.50;;
74851;SDS011;63400;50.650;6.832;2023-06-14T08:36:57;19.67;;;2.63;;
74851;SDS011;63400;50.650;6.832;2023-06-14T08:39:23;4.70;;;1.50;;
74851;SDS011;63400;50.650;6.832;2023-06-14T08:41:48;3.30;;;1.20;;
74851;SDS011;63400;50.650;6.832;2023-06-14T08:44:16;3.50;;;1.30;;
74851;SDS011;63400;50.650;6.832;2023-06-14T08:46:42;3.83;;;1.27;;
74851;SDS011;63400;50.650;6.832;2023-06-14T08:51:33;3.53;;;1.27;;
74851;SDS011;63400;50.650;6.832;2023-06-14T08:54:01;4.15;;;1.33;;
74851;SDS011;63400;50.650;6.832;2023-06-14T08:56:29;4.53;;;1.42;;
74851;SDS011;63400;50.650;6.832;2023-06-14T08:58:58;5.38;;;1.38;;
74851;SDS011;63400;50.650;6.832;2023-06-14T09:01:28;2.53;;;0.85;;
74851;SDS011;63400;50.650;6.832;2023-06-14T09:06:22;3.85;;;1.17;;
74851;SDS011;63400;50.650;6.832;2023-06-14T09:08:49;2.40;;;1.08;;
74851;SDS011;63400;50.650;6.832;2023-06-14T09:13:41;3.38;;;1.15;;
74851;SDS011;63400;50.650;6.832;2023-06-14T09:18:40;3.53;;;0.90;;
74851;SDS011;63400;50.650;6.832;2023-06-14T09:21:08;5.63;;;0.70;;
74851;SDS011;63400;50.650;6.832;2023-06-14T09:26:36;9.77;;;1.05;;
74851;SDS011;63400;50.650;6.832;2023-06-14T09:28:55;7.30;;;0.70;;
74851;SDS011;63400;50.650;6.832;2023-06-14T09:33:48;3.55;;;1.15;;
74851;SDS011;63400;50.650;6.832;2023-06-14T09:36:24;3.72;;;0.90;;
74851;SDS011;63400;50.650;6.832;2023-06-14T09:38:54;4.47;;;0.88;;
74851;SDS011;63400;50.650;6.832;2023-06-14T09:41:26;32.55;;;2.47;;
74851;SDS011;63400;50.650;6.832;2023-06-14T09:43:59;3.92;;;1.00;;
74851;SDS011;63400;50.650;6.832;2023-06-14T09:46:28;3.58;;;0.85;;
74851;SDS011;63400;50.650;6.832;2023-06-14T09:48:57;5.72;;;1.23;;
74851;SDS011;63400;50.650;6.832;2023-06-14T09:51:24;3.72;;;1.05;;
74851;SDS011;63400;50.650;6.832;2023-06-14T09:53:50;143.60;;;11.10;;
74851;SDS011;63400;50.650;6.832;2023-06-14T09:59:01;3.53;;;1.13;;
74851;SDS011;63400;50.650;6.832;2023-06-14T10:01:30;2.92;;;1.10;;
74851;SDS011;63400;50.650;6.832;2023-06-14T10:04:06;4.03;;;1.15;;
74851;SDS011;63400;50.650;6.832;2023-06-14T10:06:32;4.57;;;0.90;;
74851;SDS011;63400;50.650;6.832;2023-06-14T10:09:02;3.05;;;1.02;;
74851;SDS011;63400;50.650;6.832;2023-06-14T10:11:29;3.65;;;1.10;;
74851;SDS011;63400;50.650;6.832;2023-06-14T10:16:23;2.70;;;0.75;;
74851;SDS011;63400;50.650;6.832;2023-06-14T10:18:53;3.03;;;1.05;;
74851;SDS011;63400;50.650;6.832;2023-06-14T10:21:51;7.28;;;1.08;;
74851;SDS011;63400;50.650;6.832;2023-06-14T10:24:32;3.58;;;0.85;;
74851;SDS011;63400;50.650;6.832;2023-06-14T10:26:59;3.60;;;0.93;;
74851;SDS011;63400;50.650;6.832;2023-06-14T10:29:26;2.80;;;1.25;;
74851;SDS011;63400;50.650;6.832;2023-06-14T10:31:58;4.63;;;1.92;;
74851;SDS011;63400;50.650;6.832;2023-06-14T10:34:28;6.18;;;1.63;;
74851;SDS011;63400;50.650;6.832;2023-06-14T10:37:11;4.07;;;1.05;;
74851;SDS011;63400;50.650;6.832;2023-06-14T10:39:38;4.40;;;1.65;;
74851;SDS011;63400;50.650;6.832;2023-06-14T10:42:08;5.20;;;1.75;;
74851;SDS011;63400;50.650;6.832;2023-06-14T10:44:37;4.10;;;1.25;;
74851;SDS011;63400;50.650;6.832;2023-06-14T10:47:06;2.92;;;1.40;;
74851;SDS011;63400;50.650;6.832;2023-06-14T10:49:50;5.68;;;1.40;;
74851;SDS011;63400;50.650;6.832;2023-06-14T10:52:20;4.90;;;1.25;;
74851;SDS011;63400;50.650;6.832;2023-06-14T10:57:34;4.97;;;1.52;;
74851;SDS011;63400;50.650;6.832;2023-06-14T11:00:00;9.45;;;2.33;;
74851;SDS011;63400;50.650;6.832;2023-06-14T11:02:46;6.30;;;1.65;;
74851;SDS011;63400;50.650;6.832;2023-06-14T11:05:16;4.93;;;2.25;;
74851;SDS011;63400;50.650;6.832;2023-06-14T11:10:43;46.85;;;4.93;;
74851;SDS011;63400;50.650;6.832;2023-06-14T11:13:12;5.65;;;1.85;;
74851;SDS011;63400;50.650;6.832;2023-06-14T11:15:38;3.78;;;1.80;;
74851;SDS011;63400;50.650;6.832;2023-06-14T11:18:04;33.17;;;3.70;;
74851;SDS011;63400;50.650;6.832;2023-06-14T11:20:33;7.22;;;2.28;;
74851;SDS011;63400;50.650;6.832;2023-06-14T11:22:59;3.90;;;2.00;;
74851;SDS011;63400;50.650;6.832;2023-06-14T11:25:25;6.15;;;2.33;;
74851;SDS011;63400;50.650;6.832;2023-06-14T11:27:54;9.40;;;2.53;;
74851;SDS011;63400;50.650;6.832;2023-06-14T11:30:20;6.18;;;3.05;;
74851;SDS011;63400;50.650;6.832;2023-06-14T11:32:49;5.57;;;2.13;;
74851;SDS011;63400;50.650;6.832;2023-06-14T11:35:17;4.47;;;2.00;;
74851;SDS011;63400;50.650;6.832;2023-06-14T11:37:43;6.68;;;2.00;;
74851;SDS011;63400;50.650;6.832;2023-06-14T11:40:09;6.18;;;2.25;;
74851;SDS011;63400;50.650;6.832;2023-06-14T11:42:37;4.72;;;1.75;;
74851;SDS011;63400;50.650;6.832;2023-06-14T11:45:03;5.32;;;2.22;;
74851;SDS011;63400;50.650;6.832;2023-06-14T11:47:37;5.65;;;2.70;;
74851;SDS011;63400;50.650;6.832;2023-06-14T11:50:04;3.97;;;1.60;;
74851;SDS011;63400;50.650;6.832;2023-06-14T11:52:34;10.05;;;3.63;;
74851;SDS011;63400;50.650;6.832;2023-06-14T11:55:00;4.60;;;1.98;;
74851;SDS011;63400;50.650;6.832;2023-06-14T11:57:27;6.40;;;2.63;;
74851;SDS011;63400;50.650;6.832;2023-06-14T11:59:54;7.68;;;3.35;;
74851;SDS011;63400;50.650;6.832;2023-06-14T12:02:21;5.50;;;2.63;;
74851;SDS011;63400;50.650;6.832;2023-06-14T12:04:47;5.63;;;2.35;;
74851;SDS011;63400;50.650;6.832;2023-06-14T12:07:17;6.38;;;2.78;;
74851;SDS011;63400;50.650;6.832;2023-06-14T12:12:22;5.15;;;2.38;;
74851;SDS011;63400;50.650;6.832;2023-06-14T12:14:50;6.60;;;3.35;;
74851;SDS011;63400;50.650;6.832;2023-06-14T12:17:19;6.00;;;3.15;;
74851;SDS011;63400;50.650;6.832;2023-06-14T12:19:45;5.93;;;3.17;;
74851;SDS011;63400;50.650;6.832;2023-06-14T12:22:14;7.55;;;2.63;;
74851;SDS011;63400;50.650;6.832;2023-06-14T12:24:43;5.50;;;2.60;;
74851;SDS011;63400;50.650;6.832;2023-06-14T12:27:09;9.00;;;3.40;;
74851;SDS011;63400;50.650;6.832;2023-06-14T12:29:37;10.73;;;3.40;;
74851;SDS011;63400;50.650;6.832;2023-06-14T12:32:05;67.10;;;8.00;;
74851;SDS011;63400;50.650;6.832;2023-06-14T12:34:30;9.73;;;3.58;;
74851;SDS011;63400;50.650;6.832;2023-06-14T12:36:56;4.75;;;2.30;;
74851;SDS011;63400;50.650;6.832;2023-06-14T12:39:22;4.82;;;2.30;;
74851;SDS011;63400;50.650;6.832;2023-06-14T12:41:48;5.03;;;1.98;;
74851;SDS011;63400;50.650;6.832;2023-06-14T12:44:14;5.22;;;2.10;;
74851;SDS011;63400;50.650;6.832;2023-06-14T12:46:40;9.88;;;2.88;;
74851;SDS011;63400;50.650;6.832;2023-06-14T12:49:12;5.40;;;2.47;;
74851;SDS011;63400;50.650;6.832;2023-06-14T12:51:38;6.00;;;3.25;;
74851;SDS011;63400;50.650;6.832;2023-06-14T12:56:30;8.02;;;3.50;;
74851;SDS011;63400;50.650;6.832;2023-06-14T12:58:56;6.72;;;3.45;;
74851;SDS011;63400;50.650;6.832;2023-06-14T13:01:21;7.78;;;2.95;;
74851;SDS011;63400;50.650;6.832;2023-06-14T13:03:47;8.57;;;3.80;;
74851;SDS011;63400;50.650;6.832;2023-06-14T13:06:13;7.32;;;3.35;;
74851;SDS011;63400;50.650;6.832;2023-06-14T13:08:38;8.35;;;3.95;;
74851;SDS011;63400;50.650;6.832;2023-06-14T13:11:04;5.85;;;3.00;;
74851;SDS011;63400;50.650;6.832;2023-06-14T13:13:30;10.27;;;3.97;;
74851;SDS011;63400;50.650;6.832;2023-06-14T13:15:55;8.35;;;3.97;;
74851;SDS011;63400;50.650;6.832;2023-06-14T13:18:21;8.95;;;4.15;;
74851;SDS011;63400;50.650;6.832;2023-06-14T13:20:49;10.25;;;3.83;;
74851;SDS011;63400;50.650;6.832;2023-06-14T13:23:15;8.05;;;3.15;;
74851;SDS011;63400;50.650;6.832;2023-06-14T13:25:41;10.10;;;3.67;;
74851;SDS011;63400;50.650;6.832;2023-06-14T13:28:07;9.00;;;3.63;;
74851;SDS011;63400;50.650;6.832;2023-06-14T13:30:32;10.52;;;3.83;;
74851;SDS011;63400;50.650;6.832;2023-06-14T13:33:00;9.27;;;4.22;;
74851;SDS011;63400;50.650;6.832;2023-06-14T13:35:25;10.80;;;4.00;;
74851;SDS011;63400;50.650;6.832;2023-06-14T13:37:51;8.63;;;3.75;;
74851;SDS011;63400;50.650;6.832;2023-06-14T13:40:17;9.23;;;3.90;;
74851;SDS011;63400;50.650;6.832;2023-06-14T13:42:42;22.80;;;5.50;;
74851;SDS011;63400;50.650;6.832;2023-06-14T13:45:08;9.25;;;3.78;;
74851;SDS011;63400;50.650;6.832;2023-06-14T13:47:35;11.60;;;4.38;;
74851;SDS011;63400;50.650;6.832;2023-06-14T13:50:01;9.40;;;4.68;;
74851;SDS011;63400;50.650;6.832;2023-06-14T13:52:27;10.43;;;4.57;;
74851;SDS011;63400;50.650;6.832;2023-06-14T13:54:52;15.10;;;4.65;;
74851;SDS011;63400;50.650;6.832;2023-06-14T13:57:18;10.18;;;4.15;;
74851;SDS011;63400;50.650;6.832;2023-06-14T13:59:44;14.45;;;5.22;;
74851;SDS011;63400;50.650;6.832;2023-06-14T14:02:10;10.35;;;4.00;;
74851;SDS011;63400;50.650;6.832;2023-06-14T14:04:36;10.43;;;4.07;;
74851;SDS011;63400;50.650;6.832;2023-06-14T14:07:02;9.82;;;4.30;;
74851;SDS011;63400;50.650;6.832;2023-06-14T14:09:29;9.02;;;4.10;;
74851;SDS011;63400;50.650;6.832;2023-06-14T14:11:54;9.57;;;4.28;;
74851;SDS011;63400;50.650;6.832;2023-06-14T14:14:20;10.50;;;4.80;;
74851;SDS011;63400;50.650;6.832;2023-06-14T14:16:46;10.32;;;4.60;;
74851;SDS011;63400;50.650;6.832;2023-06-14T14:19:11;12.40;;;5.13;;
74851;SDS011;63400;50.650;6.832;2023-06-14T14:21:37;9.52;;;4.38;;
74851;SDS011;63400;50.650;6.832;2023-06-14T14:24:02;9.57;;;4.45;;
74851;SDS011;63400;50.650;6.832;2023-06-14T14:26:28;24.48;;;6.63;;
74851;SDS011;63400;50.650;6.832;2023-06-14T14:28:54;12.57;;;4.45;;
74851;SDS011;63400;50.650;6.832;2023-06-14T14:31:19;11.60;;;4.80;;
74851;SDS011;63400;50.650;6.832;2023-06-14T14:33:45;15.88;;;5.75;;
74851;SDS011;63400;50.650;6.832;2023-06-14T14:36:10;11.00;;;4.60;;
74851;SDS011;63400;50.650;6.832;2023-06-14T14:38:36;11.65;;;4.88;;
74851;SDS011;63400;50.650;6.832;2023-06-14T14:41:01;10.55;;;4.65;;
74851;SDS011;63400;50.650;6.832;2023-06-14T14:43:27;11.88;;;5.20;;
74851;SDS011;63400;50.650;6.832;2023-06-14T14:45:55;11.38;;;4.80;;
74851;SDS011;63400;50.650;6.832;2023-06-14T14:48:20;12.60;;;5.38;;
74851;SDS011;63400;50.650;6.832;2023-06-14T14:50:46;13.10;;;5.45;;
74851;SDS011;63400;50.650;6.832;2023-06-14T14:53:11;16.27;;;5.78;;
74851;SDS011;63400;50.650;6.832;2023-06-14T14:55:37;13.88;;;5.43;;
74851;SDS011;63400;50.650;6.832;2023-06-14T14:58:03;12.00;;;5.03;;
74851;SDS011;63400;50.650;6.832;2023-06-14T15:00:28;11.15;;;5.18;;
74851;SDS011;63400;50.650;6.832;2023-06-14T15:02:54;12.77;;;5.57;;
74851;SDS011;63400;50.650;6.832;2023-06-14T15:05:19;12.05;;;4.93;;
74851;SDS011;63400;50.650;6.832;2023-06-14T15:07:45;13.50;;;5.22;;
74851;SDS011;63400;50.650;6.832;2023-06-14T15:10:11;11.43;;;5.10;;
74851;SDS011;63400;50.650;6.832;2023-06-14T15:12:37;14.65;;;5.30;;
74851;SDS011;63400;50.650;6.832;2023-06-14T15:15:02;80.18;;;10.00;;
74851;SDS011;63400;50.650;6.832;2023-06-14T15:17:28;11.25;;;4.65;;
74851;SDS011;63400;50.650;6.832;2023-06-14T15:19:54;14.57;;;5.43;;
74851;SDS011;63400;50.650;6.832;2023-06-14T15:22:19;11.50;;;4.85;;
74851;SDS011;63400;50.650;6.832;2023-06-14T15:24:45;12.65;;;5.35;;